Time;durP1;ratioP1;P1;durP2;ratioP2;P2;SDS_P1;SDS_P2;PMS_P1;PMS_P2;Temp;Humidity;BMP_temperature;BMP_pressure;BME280_temperature;BME280_humidity;BME280_pressure;Samples;Min_cycle;Max_cycle;Signal;HPM_P1;HPM_P2
2021/11/08 00:01:11;;;;;;;19.10;10.63;;;6.00;11.80;;;;;;5103981;28;20199;-72
2021/11/08 00:04:00;;;;;;;20.57;10.60;;;6.10;10.00;;;;;;5105340;28;20288;-72
2021/11/08 00:06:50;;;;;;;20.53;11.70;;;6.00;11.10;;;;;;5099266;27;20218;-72
2021/11/08 00:09:40;;;;;;;23.33;11.20;;;6.00;14.00;;;;;;5108858;28;20191;-72
2021/11/08 00:12:28;;;;;;;20.07;11.50;;;5.90;21.10;;;;;;5109674;28;20680;-73
2021/11/08 00:15:18;;;;;;;21.90;11.60;;;5.90;22.70;;;;;;5109746;28;20203;-72
2021/11/08 00:18:08;;;;;;;18.63;10.60;;;5.90;25.90;;;;;;5100953;28;20296;-72
2021/11/08 00:20:58;;;;;;;21.00;11.47;;;5.90;33.90;;;;;;5093750;28;20199;-72
2021/11/08 00:23:46;;;;;;;20.27;12.00;;;5.90;31.20;;;;;;5098209;28;20233;-72
2021/11/08 00:26:33;;;;;;;22.70;12.87;;;5.80;30.50;;;;;;5109056;28;20692;-72
2021/11/08 00:29:21;;;;;;;26.43;14.13;;;5.80;37.20;;;;;;5105464;28;20203;-72
2021/11/08 00:32:11;;;;;;;24.97;14.47;;;5.80;43.10;;;;;;5102845;28;20646;-72
2021/11/08 00:34:59;;;;;;;24.50;13.20;;;5.80;49.20;;;;;;5099764;28;20657;-73
2021/11/08 00:37:48;;;;;;;23.83;13.30;;;5.80;55.50;;;;;;5108546;28;20191;-72
2021/11/08 00:40:35;;;;;;;21.23;11.60;;;5.70;54.80;;;;;;5104836;28;20211;-72
2021/11/08 00:43:23;;;;;;;22.13;12.37;;;5.70;58.70;;;;;;5104417;28;20650;-72
2021/11/08 00:46:11;;;;;;;23.73;12.73;;;5.80;55.70;;;;;;5106431;28;20646;-72
2021/11/08 00:48:58;;;;;;;27.43;13.57;;;5.70;58.60;;;;;;5097829;28;20199;-72
2021/11/08 00:51:46;;;;;;;22.60;11.63;;;5.80;61.40;;;;;;5109542;28;20567;-73
2021/11/08 00:54:35;;;;;;;17.53;9.17;;;5.70;60.10;;;;;;5108119;28;20298;-72
2021/11/08 00:57:25;;;;;;;22.10;11.77;;;5.70;63.60;;;;;;5105074;28;20661;-72
2021/11/08 01:00:14;;;;;;;20.97;10.53;;;5.70;64.50;;;;;;5107735;28;20280;-73
2021/11/08 01:03:04;;;;;;;20.60;10.43;;;5.70;79.90;;;;;;5100067;28;20204;-72
2021/11/08 01:05:52;;;;;;;24.17;12.20;;;5.70;87.20;;;;;;5110135;28;20199;-72
2021/11/08 01:08:40;;;;;;;20.90;11.37;;;5.70;92.20;;;;;;5108958;28;20256;-72
2021/11/08 01:11:29;;;;;;;19.70;10.77;;;5.60;92.50;;;;;;5099316;28;20215;-73
2021/11/08 01:14:17;;;;;;;19.57;10.97;;;5.70;92.90;;;;;;5109019;28;20199;-72
2021/11/08 01:17:05;;;;;;;19.10;10.43;;;5.60;96.10;;;;;;5106060;28;20234;-72
2021/11/08 01:19:53;;;;;;;18.50;9.67;;;5.50;96.10;;;;;;5110060;28;20195;-72
2021/11/08 01:22:40;;;;;;;19.93;10.47;;;5.50;99.90;;;;;;5107580;28;20203;-72
2021/11/08 01:25:29;;;;;;;21.33;10.90;;;5.50;99.90;;;;;;5106308;28;20207;-72
2021/11/08 01:28:17;;;;;;;24.03;12.47;;;5.40;99.90;;;;;;5102632;28;20631;-72
2021/11/08 01:31:06;;;;;;;23.97;11.67;;;5.40;99.90;;;;;;5101006;28;20210;-73
2021/11/08 01:33:54;;;;;;;21.87;12.10;;;5.30;99.90;;;;;;5109028;28;20210;-72
2021/11/08 01:36:50;;;;;;;20.80;11.77;;;5.30;99.90;;;;;;5109401;28;20191;-72
2021/11/08 01:39:38;;;;;;;27.07;13.83;;;5.30;99.90;;;;;;5081746;28;20192;-72
2021/11/08 01:42:25;;;;;;;22.60;13.20;;;5.20;99.90;;;;;;5076026;28;20204;-72
2021/11/08 01:45:15;;;;;;;25.27;12.03;;;5.20;99.90;;;;;;5080463;28;20203;-73
2021/11/08 01:48:02;;;;;;;21.20;11.97;;;5.10;99.90;;;;;;5083655;28;20226;-73
2021/11/08 01:50:50;;;;;;;17.90;10.07;;;5.10;99.90;;;;;;5091292;28;20191;-72
2021/11/08 01:53:38;;;;;;;21.33;12.17;;;5.00;99.90;;;;;;5089693;28;20543;-72
2021/11/08 01:56:26;;;;;;;26.00;13.43;;;5.00;99.90;;;;;;5111428;28;20234;-72
2021/11/08 01:59:13;;;;;;;22.60;13.37;;;5.00;99.90;;;;;;5112727;28;20214;-73
2021/11/08 02:02:02;;;;;;;21.57;13.10;;;4.90;99.90;;;;;;5108375;28;20232;-72
2021/11/08 02:04:50;;;;;;;24.47;13.10;;;4.90;99.90;;;;;;5099368;28;20211;-72
2021/11/08 02:07:38;;;;;;;22.77;13.57;;;4.90;99.90;;;;;;5101893;28;20214;-72
2021/11/08 02:10:25;;;;;;;25.10;14.00;;;4.90;99.90;;;;;;5112003;28;20199;-72
2021/11/08 02:13:13;;;;;;;24.07;12.73;;;4.90;99.90;;;;;;5106263;28;20235;-72
2021/11/08 02:16:01;;;;;;;21.97;12.70;;;4.80;99.90;;;;;;5107232;28;20228;-72
2021/11/08 02:18:51;;;;;;;25.27;13.43;;;4.80;99.90;;;;;;5112205;28;20283;-72
2021/11/08 02:21:40;;;;;;;25.73;14.43;;;4.80;99.90;;;;;;5111914;28;20561;-72
2021/11/08 02:24:28;;;;;;;23.07;14.27;;;4.80;99.90;;;;;;5111617;28;20199;-72
2021/11/08 02:27:17;;;;;;;22.57;12.70;;;4.70;99.90;;;;;;5111776;28;20226;-73
2021/11/08 02:30:06;;;;;;;21.33;12.53;;;4.80;99.90;;;;;;5103419;28;20619;-72
2021/11/08 02:32:53;;;;;;;20.17;11.73;;;4.80;99.90;;;;;;5089929;28;20204;-72
2021/11/08 02:35:41;;;;;;;22.37;12.33;;;4.80;99.90;;;;;;5108710;28;20560;-72
2021/11/08 02:38:30;;;;;;;23.80;12.03;;;4.80;99.90;;;;;;5111397;28;20195;-72
2021/11/08 02:41:19;;;;;;;24.60;12.57;;;4.70;99.90;;;;;;5111216;28;20675;-72
2021/11/08 02:44:06;;;;;;;24.90;13.23;;;4.80;99.90;;;;;;5109346;28;20254;-72
2021/11/08 02:46:55;;;;;;;25.37;13.53;;;4.80;99.90;;;;;;5098372;28;20212;-73
2021/11/08 02:49:45;;;;;;;26.17;14.37;;;4.80;99.90;;;;;;5109246;28;20234;-72
2021/11/08 02:52:32;;;;;;;24.37;13.90;;;4.80;99.90;;;;;;5100201;28;20290;-72
2021/11/08 02:55:23;;;;;;;26.20;13.70;;;4.90;99.90;;;;;;5095293;28;20212;-72
2021/11/08 02:58:11;;;;;;;26.63;14.40;;;4.90;99.90;;;;;;5091733;28;20232;-72
2021/11/08 03:00:58;;;;;;;27.17;15.03;;;4.90;99.90;;;;;;5111430;28;20207;-72
2021/11/08 03:03:48;;;;;;;25.17;14.57;;;4.90;99.90;;;;;;5109537;28;20210;-73
2021/11/08 03:06:36;;;;;;;28.87;14.90;;;4.90;99.90;;;;;;5084728;28;20205;-72
2021/11/08 03:09:24;;;;;;;19.20;11.13;;;4.90;99.90;;;;;;5106144;28;20681;-73
2021/11/08 03:12:15;;;;;;;24.57;14.23;;;5.00;99.90;;;;;;5109006;28;20578;-73
2021/11/08 03:15:07;;;;;;;26.63;13.20;;;5.00;99.90;;;;;;5100433;28;20199;-72
2021/11/08 03:18:02;;;;;;;19.90;11.37;;;5.10;99.90;;;;;;5111156;28;20188;-72
2021/11/08 03:20:51;;;;;;;20.43;12.00;;;5.10;99.90;;;;;;5103695;28;20187;-72
2021/11/08 03:23:39;;;;;;;19.27;11.73;;;5.10;99.90;;;;;;5096653;28;20270;-72
2021/11/08 03:29:32;;;;;;;17.20;9.13;;;5.10;99.90;;;;;;5108325;28;20219;-73
2021/11/08 03:32:20;;;;;;;17.53;11.03;;;5.20;99.90;;;;;;5111178;28;20673;-72
2021/11/08 03:35:09;;;;;;;20.13;10.83;;;5.20;99.90;;;;;;5102000;28;20199;-72
2021/11/08 03:37:57;;;;;;;19.07;10.70;;;5.30;99.90;;;;;;5111394;28;20281;-73
2021/11/08 03:40:46;;;;;;;23.00;10.73;;;5.30;99.90;;;;;;5104823;28;20637;-72
2021/11/08 03:43:34;;;;;;;17.40;10.13;;;5.30;99.90;;;;;;5109606;28;20195;-72
2021/11/08 03:46:22;;;;;;;16.90;10.03;;;5.40;99.90;;;;;;5110298;28;20211;-72
2021/11/08 03:49:10;;;;;;;19.87;10.57;;;5.40;99.90;;;;;;5108627;28;20240;-72
2021/11/08 03:51:58;;;;;;;21.07;10.40;;;5.40;99.90;;;;;;5110616;28;20207;-73
2021/11/08 03:54:45;;;;;;;18.20;10.73;;;5.50;99.90;;;;;;5109335;28;20722;-73
2021/11/08 03:57:32;;;;;;;21.23;11.23;;;5.50;99.90;;;;;;5108064;28;20670;-72
2021/11/08 04:00:21;;;;;;;19.57;10.57;;;5.50;99.90;;;;;;5110654;28;20195;-72
2021/11/08 04:03:11;;;;;;;16.53;10.23;;;5.50;99.90;;;;;;5110606;28;20563;-72
2021/11/08 04:05:58;;;;;;;17.70;10.70;;;5.60;99.90;;;;;;5110601;28;20654;-72
2021/11/08 04:08:46;;;;;;;17.00;10.33;;;5.60;99.90;;;;;;5092314;28;20728;-72
2021/11/08 04:11:34;;;;;;;20.70;10.47;;;5.60;99.90;;;;;;5109345;28;20219;-72
2021/11/08 04:14:22;;;;;;;19.03;10.70;;;5.60;99.90;;;;;;5100614;28;20195;-72
2021/11/08 04:17:10;;;;;;;23.10;10.77;;;5.60;99.90;;;;;;5100597;28;20231;-72
2021/11/08 04:19:59;;;;;;;19.33;10.83;;;5.60;99.90;;;;;;5109652;28;20199;-72
2021/11/08 04:22:48;;;;;;;20.80;10.47;;;5.60;99.90;;;;;;5096071;28;20569;-72
2021/11/08 04:25:36;;;;;;;19.63;10.83;;;5.60;99.90;;;;;;5108820;28;20222;-72
2021/11/08 04:28:24;;;;;;;21.03;11.20;;;5.60;99.90;;;;;;5108864;28;20666;-72
2021/11/08 04:31:11;;;;;;;20.90;11.20;;;5.60;99.90;;;;;;5099745;28;20652;-72
2021/11/08 04:34:02;;;;;;;21.97;11.50;;;5.60;99.90;;;;;;5110394;28;20199;-72
2021/11/08 04:40:10;;;;;;;22.03;11.47;;;5.60;99.90;;;;;;5110429;28;20711;-72
2021/11/08 04:43:05;;;;;;;20.10;10.27;;;5.60;99.90;;;;;;5109129;28;20207;-72
2021/11/08 04:49:14;;;;;;;18.60;11.20;;;5.50;99.90;;;;;;5102253;28;20728;-73
2021/11/08 04:52:36;;;;;;;18.80;11.30;;;5.50;99.90;;;;;;5098601;28;20313;-72
2021/11/08 04:55:32;;;;;;;19.13;11.17;;;5.50;99.90;;;;;;5108614;28;20288;-73
2021/11/08 05:23:47;;;;;;;20.47;10.67;;;5.50;99.90;;;;;;4955557;28;20207;-72
2021/11/08 05:29:56;;;;;;;18.50;10.67;;;5.50;94.30;;;;;;4951542;28;20220;-72
2021/11/08 05:32:46;;;;;;;19.93;10.70;;;5.50;92.40;;;;;;4997204;28;20202;-72
2021/11/08 05:35:34;;;;;;;17.27;10.10;;;5.50;89.20;;;;;;5020536;28;20209;-72
2021/11/08 05:38:24;;;;;;;23.20;10.33;;;5.50;88.40;;;;;;5016226;28;20199;-72
2021/11/08 05:41:12;;;;;;;17.27;9.07;;;5.50;90.70;;;;;;5016626;28;20210;-73
2021/11/08 05:44:00;;;;;;;21.03;9.90;;;5.60;87.10;;;;;;5022900;28;20205;-72
2021/11/08 05:46:47;;;;;;;19.87;10.80;;;5.60;78.70;;;;;;5018935;28;20198;-72
2021/11/08 05:49:35;;;;;;;21.90;11.13;;;5.50;76.60;;;;;;5010908;28;20222;-72
2021/11/08 05:52:23;;;;;;;22.53;12.03;;;5.50;80.00;;;;;;5022986;28;20344;-73
2021/11/08 05:55:12;;;;;;;20.17;10.97;;;5.50;80.60;;;;;;5106915;28;20219;-72
2021/11/08 05:59:01;;;;;;;22.20;11.63;;;5.50;79.00;;;;;;5104616;28;20195;-72
2021/11/08 06:51:22;;;;;;;21.87;12.43;;;5.60;58.00;;;;;;5081049;28;20298;-72
2021/11/08 06:54:10;;;;;;;22.00;11.40;;;5.60;57.60;;;;;;5089779;28;20200;-72
2021/11/08 06:57:05;;;;;;;21.97;12.73;;;5.60;50.50;;;;;;5088318;28;20217;-72
2021/11/08 06:59:52;;;;;;;21.97;11.40;;;5.70;45.20;;;;;;5083949;28;20215;-73
2021/11/08 07:02:40;;;;;;;22.50;11.50;;;5.70;43.00;;;;;;5078264;28;20197;-72
2021/11/08 07:05:27;;;;;;;24.67;12.23;;;5.80;36.80;;;;;;5085794;28;20227;-72
2021/11/08 07:08:15;;;;;;;24.40;11.50;;;5.80;28.30;;;;;;5088275;28;20222;-72
2021/11/08 07:11:03;;;;;;;21.80;12.10;;;5.90;27.20;;;;;;5088865;28;20363;-72
2021/11/08 07:13:52;;;;;;;22.37;12.40;;;6.00;99.90;;;;;;5089658;28;20260;-72
2021/11/08 07:16:40;;;;;;;18.30;8.27;;;6.10;99.90;;;;;;5101829;28;20714;-72
2021/11/08 07:19:28;;;;;;;19.30;9.80;;;6.10;99.90;;;;;;5110895;28;20191;-72
2021/11/08 07:22:15;;;;;;;19.57;10.17;;;6.20;99.90;;;;;;5108175;28;20207;-72
2021/11/08 07:25:03;;;;;;;25.80;11.87;;;6.20;99.90;;;;;;5108904;28;20567;-72
2021/11/08 07:27:51;;;;;;;23.17;12.07;;;6.30;99.90;;;;;;5110254;28;20202;-72
2021/11/08 07:30:43;;;;;;;20.73;11.37;;;6.30;99.90;;;;;;5110182;28;20187;-71
2021/11/08 07:33:32;;;;;;;24.77;12.23;;;6.40;99.90;;;;;;5101977;28;20196;-73
2021/11/08 07:36:19;;;;;;;23.63;11.60;;;6.50;99.90;;;;;;5109543;28;20515;-72
2021/11/08 07:39:07;;;;;;;23.50;11.33;;;6.50;99.90;;;;;;5091315;28;20219;-72
2021/11/08 07:41:54;;;;;;;25.50;11.80;;;6.50;99.90;;;;;;5110093;28;20203;-72
2021/11/08 07:44:42;;;;;;;21.53;10.83;;;6.60;99.90;;;;;;5110156;28;20195;-72
2021/11/08 07:47:31;;;;;;;16.47;9.07;;;6.50;99.90;;;;;;5105067;28;20237;-72
2021/11/08 07:50:18;;;;;;;28.17;10.03;;;6.60;99.90;;;;;;5108592;28;20211;-73
2021/11/08 07:53:06;;;;;;;20.27;9.67;;;6.60;99.90;;;;;;5111170;28;20771;-73
2021/11/08 07:55:54;;;;;;;21.73;9.43;;;6.70;99.90;;;;;;5098706;28;20224;-72
2021/11/08 07:58:41;;;;;;;22.37;9.10;;;6.80;99.90;;;;;;5110866;28;20196;-72
2021/11/08 08:01:29;;;;;;;16.53;8.77;;;6.80;99.90;;;;;;5103728;28;20196;-72
2021/11/08 08:04:18;;;;;;;25.13;9.70;;;6.90;99.90;;;;;;5111288;28;20210;-72
2021/11/08 08:07:06;;;;;;;19.53;7.37;;;6.90;99.90;;;;;;5093932;28;20604;-73
2021/11/08 08:09:55;;;;;;;18.20;8.87;;;6.90;99.90;;;;;;5104376;28;20230;-72
2021/11/08 08:12:43;;;;;;;13.47;6.97;;;7.00;99.90;;;;;;5092025;28;20204;-72
2021/11/08 08:15:32;;;;;;;19.97;7.83;;;7.00;99.90;;;;;;5109179;28;20738;-72
2021/11/08 08:18:19;;;;;;;17.27;8.13;;;7.00;99.90;;;;;;5086909;28;20584;-73
2021/11/08 08:21:09;;;;;;;20.03;7.50;;;7.10;99.90;;;;;;5101341;28;20196;-72
2021/11/08 08:23:57;;;;;;;14.20;7.03;;;7.20;99.90;;;;;;5098690;28;20199;-72
2021/11/08 08:26:45;;;;;;;18.17;7.47;;;7.20;99.90;;;;;;5103220;28;20328;-72
2021/11/08 08:29:33;;;;;;;17.13;7.53;;;7.30;99.90;;;;;;5105391;28;20222;-72
2021/11/08 08:32:20;;;;;;;18.93;6.27;;;7.50;99.90;;;;;;5087556;28;20212;-72
2021/11/08 08:35:10;;;;;;;12.33;5.03;;;7.60;99.90;;;;;;5092251;28;20193;-72
2021/11/08 08:37:59;;;;;;;17.07;6.40;;;7.60;99.90;;;;;;5104209;28;20203;-72
2021/11/08 08:40:47;;;;;;;14.77;5.73;;;7.60;99.90;;;;;;5094078;28;20201;-72
2021/11/08 08:43:34;;;;;;;18.73;7.23;;;7.70;99.90;;;;;;5100092;28;20201;-73
2021/11/08 08:46:22;;;;;;;13.80;6.27;;;7.70;99.90;;;;;;5095595;28;20201;-72
2021/11/08 08:49:10;;;;;;;15.47;5.67;;;7.70;99.90;;;;;;5098364;28;20229;-72
2021/11/08 08:51:57;;;;;;;15.53;5.47;;;7.70;99.90;;;;;;5094790;28;20608;-73
2021/11/08 08:54:46;;;;;;;10.03;4.27;;;7.90;99.90;;;;;;5089495;28;20296;-72
2021/11/08 08:57:34;;;;;;;14.50;4.90;;;8.00;99.90;;;;;;5099469;28;20667;-72
2021/11/08 09:00:22;;;;;;;11.47;5.13;;;8.00;99.90;;;;;;5093684;28;20558;-72
2021/11/08 09:03:10;;;;;;;15.27;4.67;;;7.90;99.90;;;;;;5098383;28;20294;-72
2021/11/08 09:05:58;;;;;;;17.10;4.97;;;8.00;99.90;;;;;;5097537;28;20805;-72
2021/11/08 09:08:45;;;;;;;14.73;5.13;;;8.10;99.90;;;;;;5093623;28;20230;-72
2021/11/08 09:11:34;;;;;;;10.53;4.13;;;8.30;99.90;;;;;;5094379;28;20615;-72
2021/11/08 09:14:22;;;;;;;12.97;4.63;;;8.40;99.90;;;;;;5095408;28;20264;-73
2021/11/08 09:17:10;;;;;;;12.30;4.20;;;8.50;99.90;;;;;;5099680;28;20222;-72
2021/11/08 09:19:57;;;;;;;14.33;4.73;;;8.60;99.90;;;;;;5105279;28;20275;-73
2021/11/08 09:22:45;;;;;;;11.50;4.43;;;8.50;99.90;;;;;;5107770;28;20198;-72
2021/11/08 09:25:33;;;;;;;12.00;3.53;;;8.50;99.90;;;;;;5109110;28;20698;-72
2021/11/08 09:28:23;;;;;;;10.37;4.23;;;8.50;99.90;;;;;;5084713;28;20202;-72
2021/11/08 09:31:11;;;;;;;9.77;2.87;;;8.60;99.90;;;;;;5101513;28;20247;-72
2021/11/08 09:34:03;;;;;;;10.43;4.03;;;8.50;99.90;;;;;;5106601;28;20678;-72
2021/11/08 09:36:53;;;;;;;13.30;3.43;;;8.50;99.90;;;;;;5108597;28;20201;-72
2021/11/08 09:39:40;;;;;;;16.13;3.77;;;8.50;99.90;;;;;;5104108;28;20195;-72
2021/11/08 09:42:29;;;;;;;12.37;3.67;;;8.50;99.90;;;;;;5106217;28;20199;-72
2021/11/08 09:45:18;;;;;;;9.00;2.77;;;8.50;99.90;;;;;;5108238;28;20237;-72
2021/11/08 09:48:06;;;;;;;9.67;3.27;;;8.50;99.90;;;;;;5104955;28;20203;-72
2021/11/08 09:50:53;;;;;;;6.43;2.70;;;8.50;99.90;;;;;;5106324;28;20221;-72
2021/11/08 09:53:41;;;;;;;8.33;3.33;;;8.40;99.90;;;;;;5107186;28;20198;-72
2021/11/08 09:56:29;;;;;;;12.63;4.00;;;8.20;99.90;;;;;;5095099;28;20714;-72
2021/11/08 09:59:16;;;;;;;12.67;4.00;;;8.30;99.90;;;;;;5109080;28;20204;-72
2021/11/08 10:02:11;;;;;;;11.93;4.07;;;8.20;99.90;;;;;;5101660;28;20202;-73
2021/11/08 10:04:58;;;;;;;12.83;4.00;;;8.20;99.90;;;;;;5107445;28;20679;-72
2021/11/08 10:07:46;;;;;;;10.63;4.20;;;8.20;99.90;;;;;;5107128;28;20344;-73
2021/11/08 10:10:34;;;;;;;25.77;8.40;;;8.20;99.90;;;;;;5106142;28;20229;-73
2021/11/08 10:13:24;;;;;;;17.87;7.07;;;8.10;99.90;;;;;;5091030;28;20209;-72
2021/11/08 10:16:14;;;;;;;25.73;9.70;;;8.00;99.90;;;;;;5093342;28;20359;-72
2021/11/08 10:19:21;;;;;;;22.77;9.07;;;8.00;99.90;;;;;;5098221;28;20195;-72
2021/11/08 10:22:10;;;;;;;21.10;8.80;;;8.00;99.90;;;;;;5096815;28;20202;-72
2021/11/08 10:24:58;;;;;;;26.00;8.13;;;7.90;99.90;;;;;;5113358;28;20541;-72
2021/11/08 10:27:45;;;;;;;24.93;9.90;;;7.90;99.90;;;;;;5112508;28;20226;-72
2021/11/08 10:30:34;;;;;;;25.17;8.80;;;7.80;99.90;;;;;;5111705;28;20221;-72
2021/11/08 10:33:23;;;;;;;21.50;8.50;;;7.80;99.90;;;;;;5102654;28;20652;-72
2021/11/08 10:36:13;;;;;;;19.23;7.00;;;7.80;99.90;;;;;;5111600;28;20229;-72
2021/11/08 10:39:01;;;;;;;19.57;6.90;;;7.80;99.90;;;;;;5109820;28;20204;-72
2021/11/08 10:41:49;;;;;;;14.77;5.97;;;7.80;99.90;;;;;;5110278;28;20316;-73
2021/11/08 10:44:37;;;;;;;11.57;3.83;;;7.90;99.90;;;;;;5111300;28;20201;-72
2021/11/08 10:47:28;;;;;;;19.57;5.13;;;7.90;99.90;;;;;;5111100;28;20280;-72
2021/11/08 10:50:15;;;;;;;9.30;3.67;;;7.90;99.90;;;;;;5111864;28;20248;-72
2021/11/08 10:53:05;;;;;;;13.23;4.60;;;7.80;99.90;;;;;;5110922;28;20687;-72
2021/11/08 10:55:54;;;;;;;10.63;4.70;;;7.80;99.90;;;;;;5101386;28;20226;-72
2021/11/08 10:58:44;;;;;;;13.40;4.87;;;7.80;99.90;;;;;;5110818;28;20208;-73
2021/11/08 11:01:33;;;;;;;16.17;5.60;;;7.80;99.90;;;;;;5105679;28;20207;-73
2021/11/08 11:04:30;;;;;;;9.70;4.40;;;7.80;99.90;;;;;;5106397;28;20200;-72
2021/11/08 11:07:20;;;;;;;12.23;4.50;;;7.90;99.90;;;;;;5108812;28;20205;-72
2021/11/08 11:10:10;;;;;;;10.13;4.40;;;8.00;99.90;;;;;;5111497;28;20799;-72
2021/11/08 11:13:00;;;;;;;14.83;5.13;;;7.90;99.90;;;;;;5109362;28;20612;-72
2021/11/08 11:15:49;;;;;;;14.03;4.77;;;8.00;99.90;;;;;;5104793;28;20236;-72
2021/11/08 11:18:38;;;;;;;8.73;3.30;;;8.10;99.90;;;;;;5105043;28;20205;-72
2021/11/08 11:21:25;;;;;;;14.20;4.43;;;8.10;99.90;;;;;;5102326;28;20225;-72
2021/11/08 11:24:14;;;;;;;13.70;4.67;;;8.10;99.90;;;;;;5103180;28;20219;-72
2021/11/08 11:27:02;;;;;;;14.53;5.83;;;8.10;99.90;;;;;;5110252;28;20189;-72
2021/11/08 11:29:50;;;;;;;13.93;5.47;;;8.10;99.90;;;;;;5096452;28;20293;-73
2021/11/08 11:32:38;;;;;;;11.30;4.90;;;8.00;99.90;;;;;;5076591;28;20209;-72
2021/11/08 11:35:28;;;;;;;9.93;3.53;;;8.00;99.90;;;;;;5085631;28;20203;-72
2021/11/08 11:38:17;;;;;;;10.27;4.00;;;8.00;99.90;;;;;;5085717;28;20281;-72
2021/11/08 11:41:06;;;;;;;14.83;4.63;;;8.00;99.90;;;;;;5081892;28;20190;-72
2021/11/08 11:43:58;;;;;;;10.07;4.47;;;8.00;99.90;;;;;;5082050;28;20327;-73
2021/11/08 11:46:46;;;;;;;16.40;5.10;;;8.00;99.90;;;;;;5082801;28;20289;-71
2021/11/08 11:49:35;;;;;;;12.73;4.57;;;8.00;99.90;;;;;;5076374;28;20573;-72
2021/11/08 11:52:23;;;;;;;12.43;4.23;;;8.10;99.90;;;;;;5082595;28;20209;-73
2021/11/08 11:55:10;;;;;;;10.23;4.23;;;8.10;99.90;;;;;;5082512;28;20218;-72
2021/11/08 11:58:01;;;;;;;12.67;4.40;;;8.20;99.90;;;;;;5082898;28;20339;-72
2021/11/08 12:00:52;;;;;;;12.77;5.07;;;8.20;99.90;;;;;;5076098;28;20209;-72
2021/11/08 12:03:40;;;;;;;12.77;4.63;;;8.20;99.90;;;;;;5083414;28;20312;-72
2021/11/08 12:06:29;;;;;;;10.37;4.17;;;8.20;99.90;;;;;;5072547;28;20253;-72
2021/11/08 12:09:19;;;;;;;11.57;4.73;;;8.20;99.90;;;;;;5082362;28;20649;-72
2021/11/08 12:12:07;;;;;;;9.83;3.97;;;8.20;99.90;;;;;;5074171;28;20550;-72
2021/11/08 12:15:05;;;;;;;14.27;4.27;;;8.30;99.90;;;;;;5082612;28;20223;-72
2021/11/08 12:17:55;;;;;;;14.40;4.23;;;8.30;99.90;;;;;;5080917;28;20250;-71
2021/11/08 12:20:43;;;;;;;10.53;3.90;;;8.30;99.90;;;;;;5083849;28;20588;-73
2021/11/08 12:23:32;;;;;;;13.53;3.77;;;8.20;99.90;;;;;;5081939;28;20207;-72
2021/11/08 12:26:20;;;;;;;9.23;3.80;;;8.20;99.90;;;;;;5084141;28;20220;-72
2021/11/08 12:29:09;;;;;;;13.57;4.63;;;8.20;99.90;;;;;;5075474;28;20215;-72
2021/11/08 12:32:01;;;;;;;14.37;4.80;;;8.10;99.90;;;;;;5080096;28;20709;-72
2021/11/08 12:34:55;;;;;;;17.07;5.70;;;8.10;99.90;;;;;;5082440;28;20207;-72
2021/11/08 12:37:42;;;;;;;10.53;4.03;;;8.10;99.90;;;;;;5078715;28;20282;-72
2021/11/08 12:40:32;;;;;;;18.13;5.10;;;8.10;99.90;;;;;;5075800;28;20285;-73
2021/11/08 12:43:25;;;;;;;10.77;4.10;;;8.10;99.90;;;;;;5079259;28;20290;-72
2021/11/08 12:46:14;;;;;;;13.57;4.40;;;8.10;99.90;;;;;;5084826;28;20296;-72
2021/11/08 12:49:07;;;;;;;9.67;4.10;;;8.10;99.90;;;;;;5082296;28;20225;-72
2021/11/08 12:51:58;;;;;;;15.03;4.57;;;8.20;99.90;;;;;;5071702;28;20253;-72
2021/11/08 12:54:48;;;;;;;17.33;4.77;;;8.20;99.90;;;;;;5075056;28;20220;-73
2021/11/08 12:57:37;;;;;;;11.53;4.33;;;8.20;99.90;;;;;;5078134;28;20254;-72
2021/11/08 13:00:27;;;;;;;12.40;4.60;;;8.20;99.90;;;;;;5080479;28;20206;-72
2021/11/08 13:03:15;;;;;;;12.97;4.73;;;8.30;99.90;;;;;;5080114;28;20202;-72
2021/11/08 13:06:04;;;;;;;14.23;4.93;;;8.40;99.90;;;;;;5081881;28;20215;-72
2021/11/08 13:09:19;;;;;;;13.43;5.47;;;8.40;99.90;;;;;;5082857;28;20733;-72
2021/11/08 13:12:12;;;;;;;18.10;5.43;;;8.40;99.90;;;;;;5077769;28;20218;-72
2021/11/08 13:15:06;;;;;;;15.67;4.83;;;8.30;99.90;;;;;;5081344;28;20204;-73
2021/11/08 13:17:55;;;;;;;12.30;5.03;;;8.30;99.90;;;;;;5081127;28;20210;-72
2021/11/08 13:20:45;;;;;;;10.87;4.37;;;8.30;99.90;;;;;;5081529;28;20206;-72
2021/11/08 13:23:34;;;;;;;12.10;4.63;;;8.30;99.90;;;;;;5080506;28;20242;-72
2021/11/08 13:26:23;;;;;;;12.90;4.67;;;8.20;99.90;;;;;;5080338;28;20220;-72
2021/11/08 13:29:17;;;;;;;12.00;4.70;;;8.20;99.90;;;;;;5079565;28;20203;-72
2021/11/08 13:32:12;;;;;;;10.33;3.97;;;8.20;99.90;;;;;;5081590;28;20708;-72
2021/11/08 13:35:08;;;;;;;13.30;3.70;;;8.20;99.90;;;;;;5081582;28;20193;-72
2021/11/08 13:38:04;;;;;;;12.00;4.30;;;8.20;99.90;;;;;;5083455;28;20226;-73
2021/11/08 13:40:54;;;;;;;13.93;3.80;;;8.20;99.90;;;;;;5088560;28;20212;-72
2021/11/08 13:43:43;;;;;;;10.63;3.23;;;8.20;99.90;;;;;;5089037;28;20286;-72
2021/11/08 13:46:34;;;;;;;9.70;3.53;;;8.20;99.90;;;;;;5091496;28;20730;-73
2021/11/08 13:49:23;;;;;;;12.53;3.57;;;8.20;99.90;;;;;;5091296;28;20228;-72
2021/11/08 13:52:10;;;;;;;8.73;3.70;;;8.20;99.90;;;;;;5090988;28;20255;-72
2021/11/08 13:54:58;;;;;;;13.57;4.17;;;8.30;99.90;;;;;;5095803;28;20229;-74
2021/11/08 13:57:46;;;;;;;13.13;4.13;;;8.30;99.90;;;;;;5084949;28;20289;-72
2021/11/08 14:00:35;;;;;;;10.30;4.43;;;8.30;99.90;;;;;;5087029;28;20207;-72
2021/11/08 14:03:22;;;;;;;10.23;4.10;;;8.40;99.90;;;;;;5084463;28;20254;-73
2021/11/08 14:06:10;;;;;;;16.10;5.20;;;8.40;99.90;;;;;;5084330;28;20573;-72
2021/11/08 14:09:02;;;;;;;11.17;4.97;;;8.40;99.90;;;;;;5088711;28;20206;-72
2021/11/08 14:11:50;;;;;;;13.50;4.73;;;8.40;99.90;;;;;;5099067;28;20217;-72
2021/11/08 14:14:38;;;;;;;12.03;4.63;;;8.30;99.90;;;;;;5102524;28;20216;-72
2021/11/08 14:17:28;;;;;;;13.30;4.67;;;8.30;99.90;;;;;;5078907;28;20231;-72
2021/11/08 14:20:16;;;;;;;16.00;5.37;;;8.30;99.90;;;;;;5078832;28;20199;-72
2021/11/08 14:23:03;;;;;;;11.77;5.20;;;8.30;99.90;;;;;;5075025;28;20219;-73
2021/11/08 14:25:51;;;;;;;13.50;5.23;;;8.30;99.90;;;;;;5069318;28;20244;-73
2021/11/08 14:28:39;;;;;;;13.43;5.47;;;8.20;99.90;;;;;;5083336;28;20206;-72
2021/11/08 14:31:28;;;;;;;17.30;6.10;;;8.10;99.90;;;;;;5077735;28;20248;-72
2021/11/08 14:34:20;;;;;;;22.37;5.70;;;8.10;99.90;;;;;;5059568;28;20194;-72
2021/11/08 14:37:10;;;;;;;16.57;5.70;;;8.10;99.90;;;;;;5059230;28;20210;-73
2021/11/08 14:39:57;;;;;;;20.13;5.83;;;8.00;99.90;;;;;;5090062;28;20707;-72
2021/11/08 14:42:45;;;;;;;14.70;5.90;;;8.00;99.90;;;;;;5091457;28;20211;-72
2021/11/08 14:45:33;;;;;;;15.70;5.40;;;8.00;99.90;;;;;;5083715;28;20307;-73
2021/11/08 14:48:23;;;;;;;16.27;6.40;;;7.90;99.90;;;;;;5089525;28;20198;-72
2021/11/08 14:51:14;;;;;;;16.80;5.93;;;7.90;99.90;;;;;;5082295;28;20252;-72
2021/11/08 14:54:03;;;;;;;13.97;5.17;;;7.80;99.90;;;;;;5091080;28;20670;-72
2021/11/08 14:56:53;;;;;;;14.33;4.93;;;7.80;99.90;;;;;;5089883;28;20200;-72
2021/11/08 14:59:41;;;;;;;13.00;5.23;;;7.80;99.90;;;;;;5076292;28;20288;-72
2021/11/08 15:02:29;;;;;;;17.60;5.47;;;7.80;99.90;;;;;;5079270;28;20211;-72
2021/11/08 15:05:18;;;;;;;15.43;5.53;;;7.70;99.90;;;;;;5082398;28;20675;-72
2021/11/08 15:08:09;;;;;;;17.00;5.57;;;7.70;99.90;;;;;;5085732;28;20199;-72
2021/11/08 15:10:58;;;;;;;14.80;5.33;;;7.70;99.90;;;;;;5090706;28;20754;-72
2021/11/08 15:13:46;;;;;;;15.70;5.80;;;7.60;99.90;;;;;;5091765;28;20190;-71
2021/11/08 15:16:44;;;;;;;17.83;6.03;;;7.60;99.90;;;;;;5089349;28;20591;-73
2021/11/08 15:19:32;;;;;;;14.40;5.77;;;7.60;99.90;;;;;;5100347;28;20207;-73
2021/11/08 15:22:20;;;;;;;17.50;6.30;;;7.60;99.90;;;;;;5103169;28;20213;-73
2021/11/08 15:25:14;;;;;;;15.67;5.70;;;7.60;99.90;;;;;;5095273;28;20696;-72
2021/11/08 15:28:11;;;;;;;21.33;6.67;;;7.50;99.90;;;;;;5099499;28;20633;-72
2021/11/08 15:31:01;;;;;;;16.90;6.33;;;7.50;99.90;;;;;;5081487;28;20308;-72
2021/11/08 15:33:51;;;;;;;19.03;6.60;;;7.50;99.90;;;;;;5080464;28;20203;-72
2021/11/08 15:36:40;;;;;;;19.27;7.33;;;7.60;99.90;;;;;;5080276;28;20210;-72
2021/11/08 15:39:30;;;;;;;20.20;7.47;;;7.60;99.90;;;;;;5081954;28;20581;-72
2021/11/08 15:42:19;;;;;;;19.43;7.60;;;7.60;99.90;;;;;;5078481;28;20195;-72
2021/11/08 15:45:07;;;;;;;22.67;7.80;;;7.60;99.90;;;;;;5086245;28;20670;-72
2021/11/08 15:47:57;;;;;;;20.37;7.73;;;7.60;99.90;;;;;;5098650;28;20231;-72
2021/11/08 15:50:44;;;;;;;22.60;7.57;;;7.60;99.90;;;;;;5109276;28;20320;-72
2021/11/08 15:53:32;;;;;;;23.97;7.47;;;7.50;99.90;;;;;;5106712;28;20196;-72
2021/11/08 15:56:20;;;;;;;17.43;7.70;;;7.60;99.90;;;;;;5108727;28;20236;-72
2021/11/08 15:59:09;;;;;;;19.53;7.27;;;7.60;99.90;;;;;;5101207;28;20202;-72
2021/11/08 16:01:57;;;;;;;15.73;6.77;;;7.50;99.90;;;;;;5102308;28;20669;-72
2021/11/08 16:04:45;;;;;;;18.20;6.90;;;7.50;99.90;;;;;;5095909;28;20206;-72